sensor_id;sensor_type;location;lat;lon;timestamp;P1;durP1;ratioP1;P2;durP2;ratioP2
70067;SDS011;57425;51.616;6.680;2023-02-11T00:01:51;38.80;;;15.60;;
70067;SDS011;57425;51.616;6.680;2023-02-11T00:04:16;40.83;;;13.83;;
70067;SDS011;57425;51.616;6.680;2023-02-11T00:06:42;52.57;;;14.90;;
70067;SDS011;57425;51.616;6.680;2023-02-11T00:09:09;49.43;;;15.63;;
70067;SDS011;57425;51.616;6.680;2023-02-11T00:11:34;47.67;;;14.57;;
70067;SDS011;57425;51.616;6.680;2023-02-11T00:14:02;41.97;;;14.50;;
70067;SDS011;57425;51.616;6.680;2023-02-11T00:16:29;55.20;;;14.37;;
70067;SDS011;57425;51.616;6.680;2023-02-11T00:19:00;33.80;;;12.20;;
70067;SDS011;57425;51.616;6.680;2023-02-11T00:21:27;39.60;;;12.50;;
70067;SDS011;57425;51.616;6.680;2023-02-11T00:23:53;41.13;;;13.67;;
70067;SDS011;57425;51.616;6.680;2023-02-11T00:26:22;51.00;;;13.67;;
70067;SDS011;57425;51.616;6.680;2023-02-11T00:28:49;48.50;;;13.80;;
70067;SDS011;57425;51.616;6.680;2023-02-11T00:31:16;35.63;;;13.07;;
70067;SDS011;57425;51.616;6.680;2023-02-11T00:33:43;51.33;;;14.07;;
70067;SDS011;57425;51.616;6.680;2023-02-11T00:36:13;48.47;;;14.60;;
70067;SDS011;57425;51.616;6.680;2023-02-11T00:38:44;45.60;;;13.87;;
70067;SDS011;57425;51.616;6.680;2023-02-11T00:41:11;35.03;;;13.03;;
70067;SDS011;57425;51.616;6.680;2023-02-11T00:43:38;51.60;;;15.43;;
70067;SDS011;57425;51.616;6.680;2023-02-11T00:46:05;33.23;;;13.10;;
70067;SDS011;57425;51.616;6.680;2023-02-11T00:48:31;49.50;;;13.37;;
70067;SDS011;57425;51.616;6.680;2023-02-11T00:50:57;45.77;;;13.67;;
70067;SDS011;57425;51.616;6.680;2023-02-11T00:53:23;45.30;;;12.60;;
70067;SDS011;57425;51.616;6.680;2023-02-11T00:55:48;32.77;;;13.23;;
70067;SDS011;57425;51.616;6.680;2023-02-11T00:58:15;34.40;;;11.67;;
70067;SDS011;57425;51.616;6.680;2023-02-11T01:00:41;39.13;;;12.80;;
70067;SDS011;57425;51.616;6.680;2023-02-11T01:03:07;39.23;;;13.23;;
70067;SDS011;57425;51.616;6.680;2023-02-11T01:05:33;43.50;;;13.90;;
70067;SDS011;57425;51.616;6.680;2023-02-11T01:07:58;35.77;;;12.30;;
70067;SDS011;57425;51.616;6.680;2023-02-11T01:10:24;40.57;;;11.70;;
70067;SDS011;57425;51.616;6.680;2023-02-11T01:12:50;41.07;;;12.50;;
70067;SDS011;57425;51.616;6.680;2023-02-11T01:15:17;26.13;;;9.90;;
70067;SDS011;57425;51.616;6.680;2023-02-11T01:17:43;27.30;;;11.60;;
70067;SDS011;57425;51.616;6.680;2023-02-11T01:20:13;46.53;;;12.77;;
70067;SDS011;57425;51.616;6.680;2023-02-11T01:22:41;36.53;;;11.87;;
70067;SDS011;57425;51.616;6.680;2023-02-11T01:25:07;38.23;;;13.17;;
70067;SDS011;57425;51.616;6.680;2023-02-11T01:27:33;47.40;;;12.33;;
70067;SDS011;57425;51.616;6.680;2023-02-11T01:29:59;33.13;;;12.17;;
70067;SDS011;57425;51.616;6.680;2023-02-11T01:32:25;32.63;;;11.37;;
70067;SDS011;57425;51.616;6.680;2023-02-11T01:34:51;36.63;;;10.07;;
70067;SDS011;57425;51.616;6.680;2023-02-11T01:37:16;28.83;;;9.60;;
70067;SDS011;57425;51.616;6.680;2023-02-11T01:39:42;39.87;;;10.87;;
70067;SDS011;57425;51.616;6.680;2023-02-11T01:42:14;31.07;;;10.93;;
70067;SDS011;57425;51.616;6.680;2023-02-11T01:44:42;30.37;;;11.43;;
70067;SDS011;57425;51.616;6.680;2023-02-11T01:47:08;25.23;;;11.07;;
70067;SDS011;57425;51.616;6.680;2023-02-11T01:49:35;38.50;;;10.77;;
70067;SDS011;57425;51.616;6.680;2023-02-11T01:52:06;29.80;;;10.33;;
70067;SDS011;57425;51.616;6.680;2023-02-11T01:54:38;34.10;;;10.03;;
70067;SDS011;57425;51.616;6.680;2023-02-11T01:57:30;39.05;;;10.63;;
70067;SDS011;57425;51.616;6.680;2023-02-11T02:00:04;28.40;;;10.33;;
70067;SDS011;57425;51.616;6.680;2023-02-11T02:05:13;25.23;;;9.77;;
70067;SDS011;57425;51.616;6.680;2023-02-11T02:08:07;21.70;;;9.00;;
70067;SDS011;57425;51.616;6.680;2023-02-11T02:10:46;28.20;;;9.53;;
70067;SDS011;57425;51.616;6.680;2023-02-11T02:13:14;24.37;;;9.07;;
70067;SDS011;57425;51.616;6.680;2023-02-11T02:15:40;32.97;;;10.57;;
70067;SDS011;57425;51.616;6.680;2023-02-11T02:18:25;29.27;;;9.40;;
70067;SDS011;57425;51.616;6.680;2023-02-11T02:24:04;27.85;;;8.82;;
70067;SDS011;57425;51.616;6.680;2023-02-11T02:35:09;26.10;;;9.23;;
70067;SDS011;57425;51.616;6.680;2023-02-11T02:40:31;24.53;;;9.00;;
70067;SDS011;57425;51.616;6.680;2023-02-11T02:43:04;28.23;;;10.27;;
70067;SDS011;57425;51.616;6.680;2023-02-11T02:45:32;25.13;;;7.70;;
70067;SDS011;57425;51.616;6.680;2023-02-11T02:47:57;30.57;;;8.80;;
70067;SDS011;57425;51.616;6.680;2023-02-11T02:50:25;45.77;;;8.47;;
70067;SDS011;57425;51.616;6.680;2023-02-11T02:53:17;32.97;;;8.83;;
70067;SDS011;57425;51.616;6.680;2023-02-11T02:56:43;33.90;;;7.77;;
70067;SDS011;57425;51.616;6.680;2023-02-11T02:59:25;22.70;;;7.87;;
70067;SDS011;57425;51.616;6.680;2023-02-11T03:02:14;22.67;;;8.07;;
70067;SDS011;57425;51.616;6.680;2023-02-11T03:07:59;24.63;;;8.03;;
70067;SDS011;57425;51.616;6.680;2023-02-11T03:10:36;20.93;;;7.90;;
70067;SDS011;57425;51.616;6.680;2023-02-11T03:13:05;22.15;;;6.90;;
70067;SDS011;57425;51.616;6.680;2023-02-11T03:15:33;28.97;;;8.70;;
70067;SDS011;57425;51.616;6.680;2023-02-11T03:18:03;29.40;;;8.47;;
70067;SDS011;57425;51.616;6.680;2023-02-11T03:20:35;14.90;;;6.87;;
70067;SDS011;57425;51.616;6.680;2023-02-11T03:23:10;25.63;;;8.30;;
70067;SDS011;57425;51.616;6.680;2023-02-11T03:25:38;24.47;;;7.53;;
70067;SDS011;57425;51.616;6.680;2023-02-11T03:33:53;16.93;;;7.03;;
70067;SDS011;57425;51.616;6.680;2023-02-11T03:36:26;28.53;;;7.83;;
70067;SDS011;57425;51.616;6.680;2023-02-11T03:38:58;26.73;;;8.07;;
70067;SDS011;57425;51.616;6.680;2023-02-11T03:41:25;15.27;;;6.73;;
70067;SDS011;57425;51.616;6.680;2023-02-11T03:43:53;18.37;;;7.80;;
70067;SDS011;57425;51.616;6.680;2023-02-11T03:46:23;23.97;;;8.13;;
70067;SDS011;57425;51.616;6.680;2023-02-11T03:51:22;22.20;;;7.67;;
70067;SDS011;57425;51.616;6.680;2023-02-11T03:53:51;17.97;;;6.90;;
70067;SDS011;57425;51.616;6.680;2023-02-11T03:56:20;22.47;;;7.47;;
70067;SDS011;57425;51.616;6.680;2023-02-11T03:58:50;27.70;;;8.77;;
70067;SDS011;57425;51.616;6.680;2023-02-11T04:01:16;19.17;;;6.80;;
70067;SDS011;57425;51.616;6.680;2023-02-11T04:03:41;23.03;;;7.07;;
70067;SDS011;57425;51.616;6.680;2023-02-11T04:06:07;17.00;;;6.77;;
70067;SDS011;57425;51.616;6.680;2023-02-11T04:08:33;29.20;;;7.57;;
70067;SDS011;57425;51.616;6.680;2023-02-11T04:10:59;27.33;;;8.60;;
70067;SDS011;57425;51.616;6.680;2023-02-11T04:13:25;25.93;;;8.20;;
70067;SDS011;57425;51.616;6.680;2023-02-11T04:15:51;42.00;;;8.40;;
70067;SDS011;57425;51.616;6.680;2023-02-11T04:18:16;20.00;;;7.93;;
70067;SDS011;57425;51.616;6.680;2023-02-11T04:20:42;18.33;;;7.60;;
70067;SDS011;57425;51.616;6.680;2023-02-11T04:23:08;28.20;;;8.50;;
70067;SDS011;57425;51.616;6.680;2023-02-11T04:25:34;18.13;;;6.50;;
70067;SDS011;57425;51.616;6.680;2023-02-11T04:28:00;30.90;;;6.73;;
70067;SDS011;57425;51.616;6.680;2023-02-11T04:30:25;31.80;;;7.20;;
70067;SDS011;57425;51.616;6.680;2023-02-11T04:32:51;21.27;;;6.77;;
70067;SDS011;57425;51.616;6.680;2023-02-11T04:35:18;18.53;;;7.13;;
70067;SDS011;57425;51.616;6.680;2023-02-11T04:37:44;38.20;;;7.97;;
70067;SDS011;57425;51.616;6.680;2023-02-11T04:40:09;17.67;;;7.23;;
70067;SDS011;57425;51.616;6.680;2023-02-11T04:42:35;27.07;;;8.33;;
70067;SDS011;57425;51.616;6.680;2023-02-11T04:45:01;23.93;;;7.20;;
70067;SDS011;57425;51.616;6.680;2023-02-11T04:47:27;20.20;;;7.47;;
70067;SDS011;57425;51.616;6.680;2023-02-11T04:49:52;30.47;;;6.60;;
70067;SDS011;57425;51.616;6.680;2023-02-11T04:52:18;21.53;;;6.37;;
70067;SDS011;57425;51.616;6.680;2023-02-11T04:54:43;29.43;;;8.03;;
70067;SDS011;57425;51.616;6.680;2023-02-11T04:57:09;29.77;;;8.53;;
70067;SDS011;57425;51.616;6.680;2023-02-11T04:59:34;22.67;;;7.37;;
70067;SDS011;57425;51.616;6.680;2023-02-11T05:02:00;39.77;;;7.43;;
70067;SDS011;57425;51.616;6.680;2023-02-11T05:04:27;25.73;;;7.10;;
70067;SDS011;57425;51.616;6.680;2023-02-11T05:06:52;25.83;;;7.67;;
70067;SDS011;57425;51.616;6.680;2023-02-11T05:09:18;37.33;;;8.93;;
70067;SDS011;57425;51.616;6.680;2023-02-11T05:11:44;25.43;;;8.67;;
70067;SDS011;57425;51.616;6.680;2023-02-11T05:14:09;17.07;;;6.53;;
70067;SDS011;57425;51.616;6.680;2023-02-11T05:16:35;20.53;;;7.27;;
70067;SDS011;57425;51.616;6.680;2023-02-11T05:19:00;24.03;;;8.70;;
70067;SDS011;57425;51.616;6.680;2023-02-11T05:21:26;23.63;;;7.90;;
70067;SDS011;57425;51.616;6.680;2023-02-11T05:23:52;27.03;;;8.87;;
70067;SDS011;57425;51.616;6.680;2023-02-11T05:26:17;22.67;;;9.27;;
70067;SDS011;57425;51.616;6.680;2023-02-11T05:28:43;27.67;;;8.00;;
70067;SDS011;57425;51.616;6.680;2023-02-11T05:31:09;25.40;;;8.10;;
70067;SDS011;57425;51.616;6.680;2023-02-11T05:33:35;30.83;;;9.47;;
70067;SDS011;57425;51.616;6.680;2023-02-11T05:36:03;26.07;;;9.17;;
70067;SDS011;57425;51.616;6.680;2023-02-11T05:38:32;39.23;;;8.80;;
70067;SDS011;57425;51.616;6.680;2023-02-11T05:40:59;17.03;;;7.87;;
70067;SDS011;57425;51.616;6.680;2023-02-11T05:43:25;22.20;;;8.87;;
70067;SDS011;57425;51.616;6.680;2023-02-11T05:45:51;32.00;;;10.70;;
70067;SDS011;57425;51.616;6.680;2023-02-11T05:48:16;27.87;;;9.27;;
70067;SDS011;57425;51.616;6.680;2023-02-11T05:50:42;24.23;;;8.97;;
70067;SDS011;57425;51.616;6.680;2023-02-11T05:53:08;23.67;;;8.80;;
70067;SDS011;57425;51.616;6.680;2023-02-11T05:55:34;36.47;;;10.00;;
70067;SDS011;57425;51.616;6.680;2023-02-11T05:57:59;37.57;;;10.00;;
70067;SDS011;57425;51.616;6.680;2023-02-11T06:00:25;22.20;;;8.23;;
70067;SDS011;57425;51.616;6.680;2023-02-11T06:02:51;22.30;;;9.50;;
70067;SDS011;57425;51.616;6.680;2023-02-11T06:05:17;23.10;;;8.97;;
70067;SDS011;57425;51.616;6.680;2023-02-11T06:07:43;32.53;;;9.23;;
70067;SDS011;57425;51.616;6.680;2023-02-11T06:10:09;37.70;;;10.10;;
70067;SDS011;57425;51.616;6.680;2023-02-11T06:12:35;27.90;;;9.23;;
70067;SDS011;57425;51.616;6.680;2023-02-11T06:15:01;33.97;;;9.27;;
70067;SDS011;57425;51.616;6.680;2023-02-11T06:17:28;25.47;;;8.83;;
70067;SDS011;57425;51.616;6.680;2023-02-11T06:19:58;31.90;;;10.10;;
70067;SDS011;57425;51.616;6.680;2023-02-11T06:22:25;28.93;;;9.70;;
70067;SDS011;57425;51.616;6.680;2023-02-11T06:24:51;32.97;;;8.40;;
70067;SDS011;57425;51.616;6.680;2023-02-11T06:27:17;25.33;;;8.23;;
70067;SDS011;57425;51.616;6.680;2023-02-11T06:29:43;37.87;;;8.87;;
70067;SDS011;57425;51.616;6.680;2023-02-11T06:32:09;33.03;;;9.43;;
70067;SDS011;57425;51.616;6.680;2023-02-11T06:34:35;27.23;;;9.13;;
70067;SDS011;57425;51.616;6.680;2023-02-11T06:37:01;24.37;;;9.47;;
70067;SDS011;57425;51.616;6.680;2023-02-11T06:39:27;26.90;;;8.63;;
70067;SDS011;57425;51.616;6.680;2023-02-11T06:41:52;32.03;;;9.30;;
70067;SDS011;57425;51.616;6.680;2023-02-11T06:44:18;41.03;;;10.17;;
70067;SDS011;57425;51.616;6.680;2023-02-11T06:46:43;42.80;;;9.37;;
70067;SDS011;57425;51.616;6.680;2023-02-11T06:49:09;24.77;;;8.50;;
70067;SDS011;57425;51.616;6.680;2023-02-11T06:51:35;23.07;;;9.13;;
70067;SDS011;57425;51.616;6.680;2023-02-11T06:54:01;26.77;;;8.67;;
70067;SDS011;57425;51.616;6.680;2023-02-11T06:56:28;33.87;;;8.17;;
70067;SDS011;57425;51.616;6.680;2023-02-11T06:58:54;43.43;;;8.70;;
70067;SDS011;57425;51.616;6.680;2023-02-11T07:01:21;35.40;;;9.07;;
70067;SDS011;57425;51.616;6.680;2023-02-11T07:03:48;18.57;;;7.33;;
70067;SDS011;57425;51.616;6.680;2023-02-11T07:06:19;28.03;;;8.23;;
70067;SDS011;57425;51.616;6.680;2023-02-11T07:08:46;34.07;;;9.13;;
70067;SDS011;57425;51.616;6.680;2023-02-11T07:11:13;43.63;;;10.27;;
70067;SDS011;57425;51.616;6.680;2023-02-11T07:13:40;35.27;;;9.40;;
70067;SDS011;57425;51.616;6.680;2023-02-11T07:16:07;20.30;;;7.67;;
70067;SDS011;57425;51.616;6.680;2023-02-11T07:18:33;28.27;;;8.20;;
70067;SDS011;57425;51.616;6.680;2023-02-11T07:21:02;25.60;;;8.40;;
70067;SDS011;57425;51.616;6.680;2023-02-11T07:23:29;31.77;;;8.57;;
70067;SDS011;57425;51.616;6.680;2023-02-11T07:25:55;28.13;;;8.97;;
70067;SDS011;57425;51.616;6.680;2023-02-11T07:28:22;19.83;;;8.77;;
70067;SDS011;57425;51.616;6.680;2023-02-11T07:30:47;25.37;;;8.33;;
70067;SDS011;57425;51.616;6.680;2023-02-11T07:33:13;29.57;;;9.27;;
70067;SDS011;57425;51.616;6.680;2023-02-11T07:35:38;27.93;;;9.43;;
70067;SDS011;57425;51.616;6.680;2023-02-11T07:38:04;27.43;;;6.97;;
70067;SDS011;57425;51.616;6.680;2023-02-11T07:40:29;39.37;;;10.70;;
70067;SDS011;57425;51.616;6.680;2023-02-11T07:42:55;33.07;;;10.30;;
70067;SDS011;57425;51.616;6.680;2023-02-11T07:45:21;31.43;;;9.67;;
70067;SDS011;57425;51.616;6.680;2023-02-11T07:47:48;29.53;;;11.13;;
70067;SDS011;57425;51.616;6.680;2023-02-11T07:50:15;40.67;;;12.13;;
70067;SDS011;57425;51.616;6.680;2023-02-11T07:52:41;35.63;;;10.70;;
70067;SDS011;57425;51.616;6.680;2023-02-11T07:55:06;30.70;;;10.23;;
70067;SDS011;57425;51.616;6.680;2023-02-11T07:57:34;31.37;;;10.00;;
70067;SDS011;57425;51.616;6.680;2023-02-11T07:59:59;29.03;;;11.63;;
70067;SDS011;57425;51.616;6.680;2023-02-11T08:02:25;30.70;;;10.67;;
70067;SDS011;57425;51.616;6.680;2023-02-11T08:04:50;53.20;;;10.73;;
70067;SDS011;57425;51.616;6.680;2023-02-11T08:07:16;33.43;;;11.00;;
70067;SDS011;57425;51.616;6.680;2023-02-11T08:09:42;39.63;;;11.47;;
70067;SDS011;57425;51.616;6.680;2023-02-11T08:12:08;39.23;;;10.90;;
70067;SDS011;57425;51.616;6.680;2023-02-11T08:14:33;33.03;;;9.50;;
70067;SDS011;57425;51.616;6.680;2023-02-11T08:16:59;34.07;;;11.37;;
70067;SDS011;57425;51.616;6.680;2023-02-11T08:19:25;43.83;;;11.10;;
70067;SDS011;57425;51.616;6.680;2023-02-11T08:21:53;33.10;;;9.80;;
70067;SDS011;57425;51.616;6.680;2023-02-11T08:24:20;34.37;;;10.47;;
70067;SDS011;57425;51.616;6.680;2023-02-11T08:26:46;35.33;;;10.70;;
70067;SDS011;57425;51.616;6.680;2023-02-11T08:29:13;35.90;;;10.80;;
70067;SDS011;57425;51.616;6.680;2023-02-11T08:31:40;39.67;;;12.70;;
70067;SDS011;57425;51.616;6.680;2023-02-11T08:34:08;46.43;;;10.67;;
70067;SDS011;57425;51.616;6.680;2023-02-11T08:36:36;39.97;;;10.90;;
70067;SDS011;57425;51.616;6.680;2023-02-11T08:39:07;44.13;;;12.47;;
70067;SDS011;57425;51.616;6.680;2023-02-11T08:41:37;33.87;;;12.50;;
70067;SDS011;57425;51.616;6.680;2023-02-11T08:44:02;41.57;;;12.27;;
70067;SDS011;57425;51.616;6.680;2023-02-11T08:46:28;35.13;;;10.60;;
70067;SDS011;57425;51.616;6.680;2023-02-11T08:48:54;47.93;;;11.07;;
70067;SDS011;57425;51.616;6.680;2023-02-11T08:51:21;42.40;;;10.03;;
70067;SDS011;57425;51.616;6.680;2023-02-11T08:53:49;45.50;;;12.17;;
70067;SDS011;57425;51.616;6.680;2023-02-11T08:56:15;38.90;;;12.93;;
70067;SDS011;57425;51.616;6.680;2023-02-11T08:58:42;45.93;;;12.03;;
70067;SDS011;57425;51.616;6.680;2023-02-11T09:01:12;24.77;;;10.80;;
70067;SDS011;57425;51.616;6.680;2023-02-11T09:03:39;42.37;;;12.40;;
70067;SDS011;57425;51.616;6.680;2023-02-11T09:06:05;51.13;;;11.27;;
70067;SDS011;57425;51.616;6.680;2023-02-11T09:08:36;50.90;;;12.63;;
70067;SDS011;57425;51.616;6.680;2023-02-11T09:11:03;37.10;;;12.87;;
70067;SDS011;57425;51.616;6.680;2023-02-11T09:13:30;40.80;;;12.47;;
70067;SDS011;57425;51.616;6.680;2023-02-11T09:15:56;42.37;;;11.43;;
70067;SDS011;57425;51.616;6.680;2023-02-11T09:18:23;57.67;;;15.70;;
70067;SDS011;57425;51.616;6.680;2023-02-11T09:20:48;58.40;;;11.73;;
70067;SDS011;57425;51.616;6.680;2023-02-11T09:23:14;53.67;;;14.03;;
70067;SDS011;57425;51.616;6.680;2023-02-11T09:25:40;59.10;;;13.50;;
70067;SDS011;57425;51.616;6.680;2023-02-11T09:28:06;70.03;;;15.53;;
70067;SDS011;57425;51.616;6.680;2023-02-11T09:30:32;53.07;;;13.03;;
70067;SDS011;57425;51.616;6.680;2023-02-11T09:32:58;37.80;;;12.33;;
70067;SDS011;57425;51.616;6.680;2023-02-11T09:35:24;54.17;;;13.53;;
70067;SDS011;57425;51.616;6.680;2023-02-11T09:37:49;50.40;;;13.70;;
70067;SDS011;57425;51.616;6.680;2023-02-11T09:40:15;53.07;;;14.67;;
70067;SDS011;57425;51.616;6.680;2023-02-11T09:45:28;59.43;;;14.23;;
70067;SDS011;57425;51.616;6.680;2023-02-11T09:48:01;41.87;;;12.27;;
70067;SDS011;57425;51.616;6.680;2023-02-11T09:50:31;47.60;;;13.23;;
70067;SDS011;57425;51.616;6.680;2023-02-11T09:55:51;52.37;;;13.90;;
70067;SDS011;57425;51.616;6.680;2023-02-11T09:58:31;53.90;;;14.33;;
70067;SDS011;57425;51.616;6.680;2023-02-11T10:06:45;42.30;;;14.93;;
70067;SDS011;57425;51.616;6.680;2023-02-11T10:20:30;50.43;;;14.80;;
70067;SDS011;57425;51.616;6.680;2023-02-11T10:25:52;50.90;;;15.50;;
70067;SDS011;57425;51.616;6.680;2023-02-11T10:30:56;58.70;;;15.87;;
70067;SDS011;57425;51.616;6.680;2023-02-11T10:36:05;50.57;;;14.87;;
70067;SDS011;57425;51.616;6.680;2023-02-11T10:38:30;63.90;;;15.93;;
70067;SDS011;57425;51.616;6.680;2023-02-11T10:40:58;62.00;;;16.63;;
70067;SDS011;57425;51.616;6.680;2023-02-11T10:43:26;61.03;;;15.87;;
70067;SDS011;57425;51.616;6.680;2023-02-11T10:45:55;70.90;;;16.70;;
70067;SDS011;57425;51.616;6.680;2023-02-11T10:48:41;69.77;;;19.60;;
70067;SDS011;57425;51.616;6.680;2023-02-11T10:51:29;71.10;;;16.47;;
70067;SDS011;57425;51.616;6.680;2023-02-11T10:56:28;71.83;;;17.33;;
70067;SDS011;57425;51.616;6.680;2023-02-11T10:59:20;53.53;;;16.33;;
70067;SDS011;57425;51.616;6.680;2023-02-11T11:01:57;65.57;;;16.30;;
70067;SDS011;57425;51.616;6.680;2023-02-11T11:06:55;71.40;;;17.23;;
70067;SDS011;57425;51.616;6.680;2023-02-11T11:09:54;53.87;;;17.07;;
70067;SDS011;57425;51.616;6.680;2023-02-11T11:15:22;60.53;;;16.70;;
70067;SDS011;57425;51.616;6.680;2023-02-11T11:17:50;87.77;;;20.17;;
70067;SDS011;57425;51.616;6.680;2023-02-11T11:23:25;69.67;;;19.17;;
70067;SDS011;57425;51.616;6.680;2023-02-11T11:31:21;54.63;;;14.77;;
70067;SDS011;57425;51.616;6.680;2023-02-11T11:33:52;69.90;;;18.23;;
70067;SDS011;57425;51.616;6.680;2023-02-11T11:36:20;55.23;;;16.00;;
70067;SDS011;57425;51.616;6.680;2023-02-11T11:38:53;63.33;;;15.73;;
70067;SDS011;57425;51.616;6.680;2023-02-11T11:43:58;84.37;;;19.27;;
70067;SDS011;57425;51.616;6.680;2023-02-11T11:46:34;68.07;;;18.50;;
70067;SDS011;57425;51.616;6.680;2023-02-11T11:51:47;57.97;;;16.20;;
70067;SDS011;57425;51.616;6.680;2023-02-11T11:54:20;67.50;;;17.23;;
70067;SDS011;57425;51.616;6.680;2023-02-11T11:57:09;60.00;;;18.03;;
70067;SDS011;57425;51.616;6.680;2023-02-11T11:59:40;66.43;;;17.83;;
70067;SDS011;57425;51.616;6.680;2023-02-11T12:18:10;76.83;;;20.73;;
70067;SDS011;57425;51.616;6.680;2023-02-11T12:31:57;74.03;;;17.87;;
70067;SDS011;57425;51.616;6.680;2023-02-11T12:37:01;61.87;;;18.27;;
70067;SDS011;57425;51.616;6.680;2023-02-11T12:56:42;60.93;;;19.23;;
70067;SDS011;57425;51.616;6.680;2023-02-11T13:02:18;56.83;;;18.40;;
70067;SDS011;57425;51.616;6.680;2023-02-11T13:04:54;68.37;;;17.93;;
70067;SDS011;57425;51.616;6.680;2023-02-11T13:07:34;70.80;;;18.03;;
70067;SDS011;57425;51.616;6.680;2023-02-11T13:10:15;55.63;;;15.85;;
70067;SDS011;57425;51.616;6.680;2023-02-11T13:12:50;72.20;;;18.70;;
70067;SDS011;57425;51.616;6.680;2023-02-11T13:15:36;54.83;;;16.73;;
70067;SDS011;57425;51.616;6.680;2023-02-11T13:20:50;58.93;;;17.63;;
70067;SDS011;57425;51.616;6.680;2023-02-11T13:23:32;50.70;;;18.30;;
70067;SDS011;57425;51.616;6.680;2023-02-11T13:31:43;52.80;;;15.60;;
70067;SDS011;57425;51.616;6.680;2023-02-11T13:34:24;71.80;;;18.50;;
70067;SDS011;57425;51.616;6.680;2023-02-11T13:37:24;54.53;;;17.33;;
70067;SDS011;57425;51.616;6.680;2023-02-11T13:42:28;48.43;;;16.47;;
70067;SDS011;57425;51.616;6.680;2023-02-11T13:44:56;66.83;;;17.27;;
70067;SDS011;57425;51.616;6.680;2023-02-11T13:47:27;48.50;;;16.17;;
70067;SDS011;57425;51.616;6.680;2023-02-11T13:49:56;61.43;;;17.87;;
70067;SDS011;57425;51.616;6.680;2023-02-11T13:54:51;42.23;;;15.37;;
70067;SDS011;57425;51.616;6.680;2023-02-11T13:59:45;49.97;;;16.03;;
70067;SDS011;57425;51.616;6.680;2023-02-11T14:08:32;27.70;;;10.17;;
70067;SDS011;57425;51.616;6.680;2023-02-11T14:10:54;60.60;;;16.85;;
70067;SDS011;57425;51.616;6.680;2023-02-11T14:13:33;49.93;;;15.67;;
70067;SDS011;57425;51.616;6.680;2023-02-11T14:21:12;41.03;;;14.23;;
70067;SDS011;57425;51.616;6.680;2023-02-11T14:23:41;57.20;;;16.53;;
70067;SDS011;57425;51.616;6.680;2023-02-11T14:28:50;58.90;;;16.30;;
70067;SDS011;57425;51.616;6.680;2023-02-11T14:31:23;45.97;;;15.37;;
70067;SDS011;57425;51.616;6.680;2023-02-11T14:34:02;51.20;;;16.13;;
70067;SDS011;57425;51.616;6.680;2023-02-11T14:42:29;39.20;;;14.23;;
70067;SDS011;57425;51.616;6.680;2023-02-11T14:44:56;55.70;;;16.23;;
70067;SDS011;57425;51.616;6.680;2023-02-11T14:47:29;42.58;;;14.45;;
70067;SDS011;57425;51.616;6.680;2023-02-11T14:50:15;47.53;;;15.27;;
70067;SDS011;57425;51.616;6.680;2023-02-11T14:52:50;42.67;;;13.93;;
70067;SDS011;57425;51.616;6.680;2023-02-11T14:55:33;51.57;;;16.50;;
70067;SDS011;57425;51.616;6.680;2023-02-11T14:58:05;47.70;;;15.53;;
70067;SDS011;57425;51.616;6.680;2023-02-11T15:00:36;48.23;;;16.73;;
70067;SDS011;57425;51.616;6.680;2023-02-11T15:03:23;50.80;;;15.43;;
70067;SDS011;57425;51.616;6.680;2023-02-11T15:06:04;50.53;;;15.48;;
70067;SDS011;57425;51.616;6.680;2023-02-11T15:08:30;51.50;;;16.27;;
70067;SDS011;57425;51.616;6.680;2023-02-11T15:10:58;53.73;;;15.63;;
70067;SDS011;57425;51.616;6.680;2023-02-11T15:13:26;45.10;;;16.27;;
70067;SDS011;57425;51.616;6.680;2023-02-11T15:15:59;61.23;;;16.53;;
70067;SDS011;57425;51.616;6.680;2023-02-11T15:18:34;50.87;;;17.70;;
70067;SDS011;57425;51.616;6.680;2023-02-11T15:21:03;51.13;;;16.47;;
70067;SDS011;57425;51.616;6.680;2023-02-11T15:23:29;54.03;;;17.00;;
70067;SDS011;57425;51.616;6.680;2023-02-11T15:25:56;52.07;;;16.93;;
70067;SDS011;57425;51.616;6.680;2023-02-11T15:28:23;47.80;;;16.57;;
70067;SDS011;57425;51.616;6.680;2023-02-11T15:31:01;47.37;;;15.60;;
70067;SDS011;57425;51.616;6.680;2023-02-11T15:33:29;57.77;;;15.17;;
70067;SDS011;57425;51.616;6.680;2023-02-11T15:35:57;61.07;;;16.77;;
70067;SDS011;57425;51.616;6.680;2023-02-11T15:38:26;53.17;;;16.27;;
70067;SDS011;57425;51.616;6.680;2023-02-11T15:40:57;50.13;;;17.97;;
70067;SDS011;57425;51.616;6.680;2023-02-11T15:46:24;43.90;;;13.73;;
70067;SDS011;57425;51.616;6.680;2023-02-11T15:49:01;49.23;;;14.83;;
70067;SDS011;57425;51.616;6.680;2023-02-11T15:51:36;52.53;;;11.90;;
70067;SDS011;57425;51.616;6.680;2023-02-11T15:54:04;34.53;;;13.33;;
70067;SDS011;57425;51.616;6.680;2023-02-11T15:56:40;32.10;;;11.70;;
70067;SDS011;57425;51.616;6.680;2023-02-11T15:59:10;31.97;;;12.70;;
70067;SDS011;57425;51.616;6.680;2023-02-11T16:01:42;38.60;;;12.27;;
70067;SDS011;57425;51.616;6.680;2023-02-11T16:04:22;44.33;;;12.53;;
70067;SDS011;57425;51.616;6.680;2023-02-11T16:06:51;33.30;;;11.10;;
70067;SDS011;57425;51.616;6.680;2023-02-11T16:09:23;26.37;;;11.37;;
70067;SDS011;57425;51.616;6.680;2023-02-11T16:12:03;28.60;;;11.00;;
70067;SDS011;57425;51.616;6.680;2023-02-11T16:14:46;30.43;;;10.53;;
70067;SDS011;57425;51.616;6.680;2023-02-11T16:19:49;45.10;;;13.13;;
70067;SDS011;57425;51.616;6.680;2023-02-11T16:22:18;38.77;;;12.17;;
70067;SDS011;57425;51.616;6.680;2023-02-11T16:24:49;51.67;;;12.63;;
70067;SDS011;57425;51.616;6.680;2023-02-11T16:27:21;37.77;;;12.50;;
70067;SDS011;57425;51.616;6.680;2023-02-11T16:29:49;36.73;;;13.00;;
70067;SDS011;57425;51.616;6.680;2023-02-11T16:32:17;36.63;;;12.57;;
70067;SDS011;57425;51.616;6.680;2023-02-11T16:34:44;37.70;;;12.33;;
70067;SDS011;57425;51.616;6.680;2023-02-11T16:37:10;43.37;;;13.20;;
70067;SDS011;57425;51.616;6.680;2023-02-11T16:39:36;39.70;;;13.13;;
70067;SDS011;57425;51.616;6.680;2023-02-11T16:42:02;41.40;;;12.63;;
70067;SDS011;57425;51.616;6.680;2023-02-11T16:44:28;43.27;;;13.97;;
70067;SDS011;57425;51.616;6.680;2023-02-11T16:46:54;40.90;;;12.63;;
70067;SDS011;57425;51.616;6.680;2023-02-11T16:49:23;48.13;;;13.70;;
70067;SDS011;57425;51.616;6.680;2023-02-11T16:51:52;48.23;;;13.73;;
70067;SDS011;57425;51.616;6.680;2023-02-11T16:54:25;53.65;;;14.50;;
70067;SDS011;57425;51.616;6.680;2023-02-11T16:56:51;54.97;;;14.93;;
70067;SDS011;57425;51.616;6.680;2023-02-11T16:59:17;66.23;;;17.00;;
70067;SDS011;57425;51.616;6.680;2023-02-11T17:01:42;53.70;;;15.57;;
70067;SDS011;57425;51.616;6.680;2023-02-11T17:04:10;64.00;;;16.60;;
70067;SDS011;57425;51.616;6.680;2023-02-11T17:06:57;55.00;;;15.70;;
70067;SDS011;57425;51.616;6.680;2023-02-11T17:09:24;58.47;;;16.53;;
70067;SDS011;57425;51.616;6.680;2023-02-11T17:11:51;70.20;;;17.87;;
70067;SDS011;57425;51.616;6.680;2023-02-11T17:14:18;66.77;;;17.73;;
70067;SDS011;57425;51.616;6.680;2023-02-11T17:16:44;67.83;;;18.30;;
70067;SDS011;57425;51.616;6.680;2023-02-11T17:19:11;68.10;;;17.33;;
70067;SDS011;57425;51.616;6.680;2023-02-11T17:21:42;89.50;;;19.37;;
70067;SDS011;57425;51.616;6.680;2023-02-11T17:24:09;73.93;;;18.77;;
70067;SDS011;57425;51.616;6.680;2023-02-11T17:26:36;59.50;;;17.03;;
70067;SDS011;57425;51.616;6.680;2023-02-11T17:29:06;72.37;;;18.47;;
70067;SDS011;57425;51.616;6.680;2023-02-11T17:31:33;79.87;;;17.77;;